To NAV CANADA Home Page Login to a new session Search on AWWS site Disclaimer Vers la page française équivalente Tips FAQ What's new on the site To the Forecasts and Observations / NOTAM section To "File a Flight Plan" website Publications and other links Update of the User's profile FIC Telephone Numbers My Weather Data Folder Route Weather Data Regional Weather Data Local Weather Data To the Forecasts and Observations / NOTAM section
Request Generated 07/18/2019 at 16:07:47 UTC . Weather information available at that time is displayed.

METAR/TAF

WHITEHORSE/ERIK NIELSEN INTL/YT    

METAR CYXY 181600Z 36005KT 25SM BKN090 BKN120 15/10 A2973 RMK AC6AC1 FU SLP076 DENSITY ALT 3100FT=
METAR CYXY 181500Z 35004KT 40SM SCT080 BKN110 BKN170 13/10 A2971 RMK AC4AC2AC1 CVCTV CLD EMBD SLP073 DENSITY ALT 2900FT=
METAR CYXY 181400Z 36004KT 40SM FEW090 BKN120 BKN170 13/09 A2969 RMK AC2AC3AC2 SLP065 DENSITY ALT 2900FT=

TAF CYXY 181138Z 1812/1912 VRB03KT P6SM BKN090 OVC150 TEMPO 1812/1820
SCT090 BKN150
FM182000 VRB03KT P6SM SCT060 BKN120 TEMPO 1820/1903 VRB15G25KT
P6SM -SHRA VCTS BKN060CB
FM190300 VRB03KT P6SM SCT060 BKN120 TEMPO 1903/1912 P6SM -SHRA
BKN060
RMK NXT FCST BY 181800Z=
Your time UTC time
Weather data provided by Environment Canada and NAV CANADA